Flight Track Log - Related Links

Times and Time Zones

All times are in EDT time to prevent confusion due to time zone crossing. See the EJA583 flight status page for this flight to view local times or setup timezone preferences in your user account.

Time Position Orientation Groundspeed Altitude Reporting Facility
EDT Latitude Longitude Course Direction KTS MPH feet Rate Location/Type
Tue 11:42:51 PM 38.8731 -104.7117 278° West 225 259 9,300  Level Denver Center
Tue 11:43:52 PM 38.8661 -104.6386 97° East 236 272 12,400 2,927 Climbing Denver Center
Tue 11:44:54 PM 38.8142 -104.5894 144° Southeast 241 277 15,300 2,732 Climbing Denver Center
Tue 11:45:55 PM 38.7628 -104.5131 131° Southeast 256 295 18,000 2,557 Climbing Denver Center
Tue 11:46:56 PM 38.7289 -104.4383 120° Southeast 256 295 20,500 2,293 Climbing Denver Center
Tue 11:47:58 PM 38.6858 -104.3528 123° Southeast 255 293 22,700 1,902 Climbing Denver Center
Tue 11:48:00 PM 39.0202 -105.3963 278° West  Level Estimated
Tue 11:48:59 PM 38.6464 -104.2717 122° Southeast 269 310 24,400  Level Denver Center
Tue 11:50:00 PM 38.7050 -104.2111 39° Northeast 293 337 26,600 1,610 Climbing Denver Center
Tue 11:51:02 PM 38.7472 -104.3072 299° West 325 374 27,700 1,024 Climbing Denver Center
Tue 11:52:03 PM 38.7592 -104.4256 277° West 336 387 28,700 1,033 Climbing Denver Center
Tue 11:53:04 PM 38.7703 -104.5492 277° West 346 398 29,800 1,082 Climbing Denver Center
Tue 11:54:05 PM 38.7819 -104.6781 277° West 358 412 30,900 1,024 Climbing Denver Center
Tue 11:55:07 PM 38.7922 -104.8108 276° West 371 427 31,900 976 Climbing Denver Center
Tue 11:56:08 PM 38.8042 -104.9433 277° West 375 432 32,900 1,033 Climbing Denver Center
Tue 11:57:09 PM 38.8150 -105.0783 276° West 379 436 34,000 1,033 Climbing Denver Center
Tue 11:58:10 PM 38.8267 -105.2136 276° West 381 438 35,000 1,024 Climbing Denver Center
Tue 11:59:12 PM 38.8386 -105.3758 275° West 381 438 36,100 976 Climbing Denver Center
Wed 12:00:13 AM 38.8500 -105.5119 276° West 383 441 37,000 885 Climbing Denver Center
Wed 12:01:14 AM 38.8600 -105.6483 275° West 385 443 37,900 492 Climbing Denver Center
Wed 12:02:15 AM 38.8711 -105.7867 276° West 388 447 38,000 49 Climbing Denver Center
Wed 12:03:16 AM 38.8808 -105.9264 275° West 393 452 38,000  Level Denver Center
Wed 12:04:18 AM 38.8928 -106.0675 276° West 396 456 38,000  Level Denver Center
Wed 12:05:19 AM 38.9025 -106.2100 275° West 390 449 38,000  Level Denver Center
Wed 12:06:20 AM 38.9119 -106.3425 275° West 390 449 38,000  Level Denver Center
Wed 12:07:21 AM 38.9225 -106.4983 275° West 391 450 38,000  Level Denver Center
Wed 12:08:22 AM 38.9322 -106.6294 275° West 389 448 38,000  Level Denver Center
Wed 12:09:23 AM 38.9406 -106.7642 275° West 393 452 38,000  Level Denver Center
Wed 12:10:24 AM 38.9508 -106.9211 275° West 394 453 38,000  Level Denver Center
Wed 12:11:26 AM 38.9586 -107.0558 274° West 396 456 38,000  Level Denver Center
Wed 12:12:27 AM 38.9692 -107.2133 275° West 397 457 38,000  Level Denver Center
Wed 12:13:28 AM 38.9772 -107.3494 274° West 399 459 38,000  Level Denver Center
Wed 12:14:29 AM 38.9853 -107.4858 274° West 401 461 38,000  Level Denver Center
Wed 12:15:30 AM 38.9953 -107.6433 275° West 396 456 38,000  Level Denver Center
Wed 12:16:31 AM 39.0028 -107.7778 274° West 395 455 38,000  Level Denver Center
Wed 12:17:44 AM 39.0122 -107.9156 275° West 401 461 38,000  Level Denver Center
Wed 12:18:45 AM 39.0225 -108.0939 274° West 394 453 38,000  Level Denver Center
Wed 12:19:46 AM 39.0303 -108.2308 274° West 398 458 38,000  Level Denver Center
Wed 12:20:47 AM 39.0372 -108.3953 273° West 410 472 38,000  Level Denver Center
Wed 12:21:48 AM 39.0453 -108.5333 274° West 406 467 38,000  Level Denver Center
Wed 12:22:49 AM 39.0525 -108.6756 274° West 410 472 38,000  Level Denver Center
Wed 12:23:50 AM 39.0764 -108.8369 281° West 419 482 38,000  Level Denver Center
Wed 12:24:51 AM 39.1294 -108.9678 298° West 428 493 38,000  Level Denver Center
Wed 12:25:52 AM 39.1825 -109.0981 298° West 428 493 38,000  Level Denver Center
Wed 12:26:53 AM 39.2442 -109.2528 297° West 433 498 38,000  Level Denver Center
Wed 12:27:54 AM 39.2972 -109.3847 297° West 432 497 38,000  Level Denver Center
Wed 12:28:55 AM 39.3506 -109.5172 298° West 433 498 38,000  Level Denver Center
Wed 12:29:55 AM 39.4111 -109.6717 297° West 432 497 38,000  Level Denver Center
Wed 12:30:25 AM 39.4378 -109.7386 297° West 433 498 38,000  Level Salt Lake Center
Wed 12:31:26 AM 39.4897 -109.8708 297° West 430 495 38,000  Level Salt Lake Center
Wed 12:32:27 AM 39.5417 -110.0036 297° West 431 496 38,000  Level Salt Lake Center
Wed 12:33:28 AM 39.6019 -110.1589 297° West 432 497 38,000  Level Salt Lake Center
Wed 12:34:28 AM 39.6539 -110.2894 297° West 428 493 38,000 -149 Level Salt Lake Center
Wed 12:35:29 AM 39.7042 -110.4208 296° West 425 489 37,700 -1,377 Descending Salt Lake Center
Wed 12:36:30 AM 39.7631 -110.5742 297° West 426 490 35,200 -2,361 Descending Salt Lake Center
Wed 12:37:31 AM 39.8139 -110.7089 296° West 430 495 32,900 -2,281 Descending Salt Lake Center
Wed 12:38:31 AM 39.8672 -110.8453 297° West 439 505 30,600 -2,479 Descending Salt Lake Center
Wed 12:39:32 AM 39.9267 -111.0044 296° West 438 504 27,900 -2,459 Descending Salt Lake Center
Wed 12:40:33 AM 39.9786 -111.1394 297° West 436 502 25,600 -2,311 Descending Salt Lake Center
Wed 12:41:34 AM 40.0303 -111.2794 296° West 443 510 23,200 -2,479 Descending Salt Lake Center
Wed 12:42:34 AM 40.0883 -111.4344 296° West 426 490 20,600 -2,545 Descending Salt Lake Center
Wed 12:42:40 AM 40.0872 -111.4528 265° West 421 484 20,400 -1,574 Descending Salt Lake Center
Wed 12:43:35 AM 40.1394 -111.5728 300° West 423 487 19,000 -1,377 Descending Salt Lake Center
Wed 12:43:41 AM 40.1422 -111.5969 279° West 423 487 19,000 -1,279 Level Salt Lake Center
Wed 12:44:36 AM 40.2164 -111.6808 319° Northwest 411 473 17,700 -1,400 Descending Salt Lake Center
Wed 12:44:41 AM 40.2250 -111.6978 304° West 420 483 17,600 -1,377 Descending Salt Lake Center
Wed 12:45:37 AM 40.3111 -111.7700 327° Northwest 414 476 16,300 -1,475 Descending Salt Lake Center
Wed 12:45:42 AM 40.3178 -111.7842 302° West 400 460 16,100 -1,300 Descending Salt Lake Center
Wed 12:46:37 AM 40.3967 -111.8519 327° Northwest 382 440 15,000 -1,180 Descending Salt Lake Center
Wed 12:46:43 AM 40.4050 -111.8644 311° West 385 443 14,900 -1,869 Descending Salt Lake Center
Wed 12:47:38 AM 40.4814 -111.9317 326° Northwest 375 432 13,100 -1,900 Descending Salt Lake Center
Wed 12:47:43 AM 40.4872 -111.9436 303° West 372 428 13,000 -98 Descending Salt Lake Center
Wed 12:48:39 AM 40.5658 -112.0125 326° Northwest 377 434 13,000  Level Salt Lake Center
Wed 12:48:44 AM 40.5747 -112.0269 309° West 376 433 13,000  Level Salt Lake Center
Wed 12:49:39 AM 40.6544 -112.0783 334° Northwest 367 422 13,000  Level Salt Lake Center
Wed 12:49:45 AM 40.6681 -112.0858 337° Northwest 371 427 13,000 -984 Level Salt Lake Center
Wed 12:50:40 AM 40.7558 -112.0925 357° North 363 418 12,000 -1,300 Descending Salt Lake Center
Wed 12:50:45 AM 40.7714 -112.0961 350° North 362 417 11,700 -1,475 Descending Salt Lake Center
Wed 12:51:41 AM 40.8511 -112.1039 356° North 329 379 10,500 -1,377 Descending Salt Lake Center
Wed 12:51:46 AM 40.8594 -112.1061 349° North 317 365 10,300 -2,262 Descending Salt Lake Center
Wed 12:52:42 AM 40.9297 -112.1108 357° North 282 325 8,200 -2,200 Descending Salt Lake Center
Wed 12:52:46 AM 40.9386 -112.1047 27° Northeast 279 321 8,100 -400 Descending Salt Lake Center
Wed 12:53:42 AM 40.9447 -112.0339 83° East 242 278 7,800 -590 Descending Salt Lake Center
Wed 12:53:47 AM 40.9339 -112.0239 145° Southeast 244 281 7,500 -1,525 Descending Salt Lake Center
Wed 12:54:41 AM 40.8961 -111.9744 135° Southeast 226 260 6,300 -1,286 Descending Salt Lake Center
Wed 12:54:43 AM 40.8978 -111.9758 328° Northwest 234 269 6,300 -1,091 Level Salt Lake Center
Wed 12:55:36 AM 40.8464 -111.9631 169° South 184 212 5,300 -984 Descending Salt Lake Center
Wed 12:55:44 AM 40.8453 -111.9628 169° South 195 224 5,300 -787 Level Salt Lake Center
Wed 12:56:37 AM 40.8075 -111.9619 179° South 138 159 4,500 -800 Descending Salt Lake Center
Wed 12:56:44 AM 40.8081 -111.9628 311° West 140 161 4,500  Level Salt Lake Center
Wed 12:58:00 AM 40.7884 -111.9778 123° Southeast  Level Estimated

Login

Don't have an account? Register now (free) for customized features, flight alerts, and more!